createdAt,value
2022-10-08T00:01:02.676Z,97417.63
2022-10-08T00:03:31.597Z,97414.16
2022-10-08T00:06:15.043Z,97413.41
2022-10-08T00:08:46.494Z,97412.69
2022-10-08T00:11:35.192Z,97414.75
2022-10-08T00:14:02.708Z,97412.69
2022-10-08T00:16:32.388Z,97420.28
2022-10-08T00:19:04.767Z,97396.13
2022-10-08T00:21:34.720Z,97406.47
2022-10-08T00:24:02.650Z,97404.41
2022-10-08T00:26:31.953Z,97403.00
2022-10-08T00:29:01.809Z,97400.22
2022-10-08T00:31:36.189Z,97403.00
2022-10-08T00:34:05.950Z,97403.63
2022-10-08T00:36:34.107Z,97400.84
2022-10-08T00:39:03.119Z,97401.56
2022-10-08T00:41:32.196Z,97404.31
2022-10-08T00:44:03.307Z,97405.66
2022-10-08T00:46:47.116Z,97402.91
2022-10-08T00:49:19.768Z,97407.72
2022-10-08T00:51:52.150Z,97409.03
2022-10-08T00:54:20.800Z,97403.53
2022-10-08T00:56:51.175Z,97405.53
2022-10-08T00:59:17.806Z,97410.84
2022-10-08T01:01:44.651Z,97409.84
2022-10-08T01:04:12.387Z,97413.81
2022-10-08T01:06:48.028Z,97413.72
2022-10-08T01:09:35.702Z,97417.22
2022-10-08T01:12:10.315Z,97416.41
2022-10-08T01:14:55.352Z,97416.50
2022-10-08T01:17:37.156Z,97417.13
2022-10-08T01:20:15.347Z,97417.84
2022-10-08T01:22:42.065Z,97423.34
2022-10-08T01:25:33.348Z,97414.34
2022-10-08T01:28:11.478Z,97407.50
2022-10-08T01:30:42.112Z,97417.13
2022-10-08T01:33:17.072Z,97410.25
2022-10-08T01:35:45.980Z,97414.44
2022-10-08T01:38:16.345Z,97408.94
2022-10-08T01:40:43.659Z,97405.97
2022-10-08T01:43:11.914Z,97425.09
2022-10-08T01:45:48.211Z,97411.81
2022-10-08T01:48:19.160Z,97412.53
2022-10-08T01:50:53.579Z,97399.41
2022-10-08T01:53:21.933Z,97401.56
2022-10-08T01:55:51.219Z,97404.31
2022-10-08T01:58:31.248Z,97402.28
2022-10-08T02:01:04.019Z,97398.88
2022-10-08T02:03:30.744Z,97400.34
2022-10-08T02:05:58.835Z,97400.34
2022-10-08T02:08:27.230Z,97402.38
2022-10-08T02:10:53.924Z,97406.59
2022-10-08T02:13:20.832Z,97413.53
2022-10-08T02:16:17.665Z,97406.03
2022-10-08T02:18:52.086Z,97405.34
2022-10-08T02:21:25.126Z,97405.88
2022-10-08T02:24:13.449Z,97407.28
2022-10-08T02:26:48.250Z,97405.97
2022-10-08T02:29:54.844Z,97408.72
2022-10-08T02:32:31.818Z,97408.72
2022-10-08T02:35:17.316Z,97419.69
2022-10-08T02:37:47.580Z,97409.94
2022-10-08T02:40:16.335Z,97402.38
2022-10-08T02:42:50.672Z,97399.59
2022-10-08T02:45:21.790Z,97412.09
2022-10-08T02:47:51.565Z,97408.72
2022-10-08T02:50:21.104Z,97410.78
2022-10-08T02:52:49.117Z,97411.56
2022-10-08T02:55:35.148Z,97418.44
2022-10-08T02:58:05.659Z,97427.44
2022-10-08T03:00:35.432Z,97418.94
2022-10-08T03:03:10.704Z,97424.16
2022-10-08T03:05:38.382Z,97428.84
2022-10-08T03:08:06.434Z,97421.09
2022-10-08T03:10:35.344Z,97428.69
2022-10-08T03:13:02.830Z,97434.19
2022-10-08T03:15:33.584Z,97427.97
2022-10-08T03:18:03.394Z,97434.19
2022-10-08T03:20:31.004Z,97425.91
2022-10-08T03:23:01.753Z,97429.97
2022-10-08T03:25:28.605Z,97432.75
2022-10-08T03:27:55.271Z,97439.00
2022-10-08T03:30:22.007Z,97444.53
2022-10-08T03:32:49.127Z,97449.31
2022-10-08T03:35:16.313Z,97445.84
2022-10-08T03:37:42.967Z,97458.94
2022-10-08T03:40:10.427Z,97452.69
2022-10-08T03:42:37.042Z,97450.66
2022-10-08T03:45:04.713Z,97463.03
2022-10-08T03:47:31.482Z,97462.31
2022-10-08T03:49:59.994Z,97461.59
2022-10-08T03:52:36.323Z,97458.84
2022-10-08T03:55:03.229Z,97463.66
2022-10-08T03:57:29.855Z,97462.94
2022-10-08T03:59:56.449Z,97464.28
2022-10-08T04:02:23.237Z,97470.50
2022-10-08T04:04:50.001Z,97469.69
2022-10-08T04:07:16.737Z,97470.38
2022-10-08T04:09:43.503Z,97482.06
2022-10-08T04:12:10.202Z,97486.88
2022-10-08T04:14:36.845Z,97482.06
2022-10-08T04:17:03.576Z,97488.91
2022-10-08T04:19:30.163Z,97481.22
2022-10-08T04:21:56.876Z,97492.28
2022-10-08T04:24:23.678Z,97483.91
2022-10-08T04:26:50.425Z,97484.59
2022-10-08T04:29:17.072Z,97485.94
2022-10-08T04:31:43.849Z,97486.56
2022-10-08T04:34:11.586Z,97476.09
2022-10-08T04:36:39.009Z,97478.16
2022-10-08T04:39:05.670Z,97484.28
2022-10-08T04:41:32.355Z,97480.09
2022-10-08T04:44:02.787Z,97480.72
2022-10-08T04:46:29.547Z,97483.91
2022-10-08T04:48:57.144Z,97484.91
2022-10-08T04:51:26.381Z,97492.97
2022-10-08T04:53:54.268Z,97491.44
2022-10-08T04:56:24.695Z,97488.56
2022-10-08T04:58:52.212Z,97498.28
2022-10-08T05:01:19.988Z,97492.66
2022-10-08T05:03:49.124Z,97494.00
2022-10-08T05:06:17.380Z,97495.31
2022-10-08T05:08:45.255Z,97490.38
2022-10-08T05:11:12.018Z,97488.94
2022-10-08T05:13:38.974Z,97494.47
2022-10-08T05:16:11.103Z,97491.63
2022-10-08T05:18:38.667Z,97498.44
2022-10-08T05:21:05.780Z,97494.25
2022-10-08T05:23:32.993Z,97505.91
2022-10-08T05:25:59.750Z,97496.91
2022-10-08T05:28:26.603Z,97500.28
2022-10-08T05:30:53.347Z,97495.75
2022-10-08T05:33:20.090Z,97500.31
2022-10-08T05:35:46.704Z,97509.75
2022-10-08T05:38:13.439Z,97508.97
2022-10-08T05:40:40.129Z,97505.66
2022-10-08T05:43:06.835Z,97505.69
2022-10-08T05:45:33.472Z,97506.47
2022-10-08T05:48:00.317Z,97501.78
2022-10-08T05:50:26.935Z,97509.69
2022-10-08T05:52:53.693Z,97517.13
2022-10-08T05:55:20.548Z,97520.38
2022-10-08T05:57:48.679Z,97505.66
2022-10-08T06:00:15.852Z,97516.53
2022-10-08T06:02:43.390Z,97517.03
2022-10-08T06:05:10.313Z,97516.69
2022-10-08T06:07:37.067Z,97513.78
2022-10-08T06:10:04.410Z,97521.47
2022-10-08T06:12:31.041Z,97526.25
2022-10-08T06:14:57.802Z,97526.38
2022-10-08T06:17:24.669Z,97523.72
2022-10-08T06:19:51.357Z,97525.16
2022-10-08T06:22:18.271Z,97530.81
2022-10-08T06:24:45.046Z,97525.41
2022-10-08T06:27:11.793Z,97533.56
2022-10-08T06:29:38.543Z,97539.78
2022-10-08T06:32:05.257Z,97539.19
2022-10-08T06:34:32.069Z,97543.97
2022-10-08T06:36:58.732Z,97546.63
2022-10-08T06:39:25.480Z,97549.47
2022-10-08T06:41:52.176Z,97551.63
2022-10-08T06:44:19.636Z,97553.09
2022-10-08T06:46:46.427Z,97559.41
2022-10-08T06:49:13.243Z,97567.69
2022-10-08T06:51:40.208Z,97578.09
2022-10-08T06:54:08.168Z,97579.91
2022-10-08T06:56:36.397Z,97576.78
2022-10-08T06:59:04.502Z,97566.81
2022-10-08T07:01:33.676Z,97580.97
2022-10-08T07:04:01.671Z,97584.09
2022-10-08T07:06:28.616Z,97581.47
2022-10-08T07:08:57.505Z,97582.38
2022-10-08T07:11:24.707Z,97584.06
2022-10-08T07:13:51.466Z,97595.31
2022-10-08T07:16:23.405Z,97601.78
2022-10-08T07:18:51.990Z,97603.44
2022-10-08T07:21:20.394Z,97608.59
2022-10-08T07:23:47.175Z,97604.25
2022-10-08T07:26:16.212Z,97605.91
2022-10-08T07:28:48.883Z,97606.25
2022-10-08T07:31:17.941Z,97614.16
2022-10-08T07:33:44.689Z,97611.00
2022-10-08T07:36:13.937Z,97619.00
2022-10-08T07:38:41.449Z,97622.94
2022-10-08T07:41:09.587Z,97625.41
2022-10-08T07:43:37.052Z,97630.81
2022-10-08T07:46:06.048Z,97620.94
2022-10-08T07:48:34.088Z,97629.53
2022-10-08T07:51:15.963Z,97630.47
2022-10-08T07:53:43.626Z,97646.66
2022-10-08T07:56:12.895Z,97634.50
2022-10-08T07:58:40.345Z,97637.97
2022-10-08T08:01:09.117Z,97640.22
2022-10-08T08:03:36.268Z,97640.09
2022-10-08T08:06:09.301Z,97637.47
2022-10-08T08:08:37.476Z,97636.34
2022-10-08T08:11:07.500Z,97642.69
2022-10-08T08:13:37.499Z,97634.84
2022-10-08T08:16:08.547Z,97639.13
2022-10-08T08:18:38.187Z,97635.13
2022-10-08T08:21:16.868Z,97644.84
2022-10-08T08:23:46.134Z,97637.25
2022-10-08T08:26:14.315Z,97648.31
2022-10-08T08:28:41.382Z,97641.66
2022-10-08T08:31:08.099Z,97637.66
2022-10-08T08:33:35.103Z,97642.81
2022-10-08T08:36:01.820Z,97642.38
2022-10-08T08:38:28.689Z,97643.91
2022-10-08T08:40:57.245Z,97647.72
2022-10-08T08:43:25.267Z,97655.41
2022-10-08T08:45:52.006Z,97652.53
2022-10-08T08:48:26.856Z,97658.06
2022-10-08T08:50:56.284Z,97652.91
2022-10-08T08:53:23.084Z,97659.84
2022-10-08T08:55:54.202Z,97662.44
2022-10-08T08:58:24.013Z,97664.72
2022-10-08T09:00:58.435Z,97675.78
2022-10-08T09:03:30.833Z,97679.22
2022-10-08T09:06:01.028Z,97668.09
2022-10-08T09:08:47.927Z,97669.53
2022-10-08T09:11:16.639Z,97671.66
2022-10-08T09:14:15.833Z,97679.06
2022-10-08T09:16:42.672Z,97677.47
2022-10-08T09:19:09.391Z,97681.56
2022-10-08T09:21:36.105Z,97676.59
2022-10-08T09:24:03.258Z,97675.44
2022-10-08T09:26:34.679Z,97669.22
2022-10-08T09:29:03.353Z,97679.53
2022-10-08T09:31:47.941Z,97682.22
2022-10-08T09:34:17.580Z,97688.31
2022-10-08T09:36:49.187Z,97686.56
2022-10-08T09:39:25.417Z,97688.63
2022-10-08T09:42:07.219Z,97693.44
2022-10-08T09:44:41.555Z,97691.22
2022-10-08T09:47:13.046Z,97688.78
2022-10-08T09:49:40.051Z,97699.75
2022-10-08T09:52:26.024Z,97708.19
2022-10-08T09:54:57.170Z,97706.19
2022-10-08T09:57:23.924Z,97716.41
2022-10-08T10:00:01.652Z,97709.09
2022-10-08T10:02:29.719Z,97714.00
2022-10-08T10:04:58.612Z,97718.59
2022-10-08T10:07:36.547Z,97719.13
2022-10-08T10:10:04.964Z,97716.44
2022-10-08T10:12:34.924Z,97715.09
2022-10-08T10:15:05.547Z,97724.09
2022-10-08T10:17:51.289Z,97721.94
2022-10-08T10:20:58.625Z,97726.06
2022-10-08T10:23:42.608Z,97729.34
2022-10-08T10:26:15.431Z,97733.25
2022-10-08T10:28:46.625Z,97734.16
2022-10-08T10:31:16.315Z,97728.47
2022-10-08T10:33:52.013Z,97732.66
2022-10-08T10:36:20.996Z,97728.19
2022-10-08T10:39:13.991Z,97729.50
2022-10-08T10:41:50.558Z,97733.03
2022-10-08T10:44:21.887Z,97730.25
2022-10-08T10:46:53.234Z,97731.69
2022-10-08T10:49:25.044Z,97734.16
2022-10-08T10:52:10.199Z,97736.50
2022-10-08T10:55:15.176Z,97736.00
2022-10-08T10:58:06.226Z,97736.63
2022-10-08T11:00:53.756Z,97727.22
2022-10-08T11:03:32.163Z,97734.88
2022-10-08T11:06:07.620Z,97729.25
2022-10-08T11:08:42.730Z,97727.41
2022-10-08T11:11:21.707Z,97731.09
2022-10-08T11:14:09.611Z,97736.84
2022-10-08T11:16:39.219Z,97736.38
2022-10-08T11:19:13.896Z,97726.66
2022-10-08T11:21:48.592Z,97721.00
2022-10-08T11:24:59.896Z,97728.44
2022-10-08T11:27:32.483Z,97730.22
2022-10-08T11:30:15.231Z,97720.72
2022-10-08T11:32:50.538Z,97723.56
2022-10-08T11:35:54.708Z,97730.69
2022-10-08T11:39:04.872Z,97717.69
2022-10-08T11:41:40.421Z,97728.06
2022-10-08T11:44:09.951Z,97714.66
2022-10-08T11:46:37.078Z,97728.63
2022-10-08T11:49:09.879Z,97719.81
2022-10-08T11:51:57.772Z,97720.88
2022-10-08T11:54:34.610Z,97725.28
2022-10-08T11:57:21.602Z,97727.72
2022-10-08T11:59:58.863Z,97728.03
2022-10-08T12:02:41.526Z,97722.41
2022-10-08T12:05:17.828Z,97727.31
2022-10-08T12:07:52.319Z,97717.50
2022-10-08T12:10:20.564Z,97723.53
2022-10-08T12:12:49.969Z,97720.28
2022-10-08T12:15:27.737Z,97724.19
2022-10-08T12:17:58.797Z,97722.28
2022-10-08T12:20:32.515Z,97720.47
2022-10-08T12:23:06.658Z,97716.69
2022-10-08T12:25:44.318Z,97712.69
2022-10-08T12:28:20.333Z,97707.94
2022-10-08T12:30:55.764Z,97712.47
2022-10-08T12:33:23.671Z,97705.09
2022-10-08T12:36:05.290Z,97702.78
2022-10-08T12:38:55.428Z,97706.38
2022-10-08T12:41:28.657Z,97699.50
2022-10-08T12:43:58.444Z,97698.53
2022-10-08T12:46:25.178Z,97702.06
2022-10-08T12:48:55.483Z,97699.66
2022-10-08T12:51:40.152Z,97701.50
2022-10-08T12:54:17.591Z,97697.06
2022-10-08T12:56:44.447Z,97702.88
2022-10-08T12:59:11.554Z,97706.22
2022-10-08T13:01:41.713Z,97699.78
2022-10-08T13:04:19.358Z,97705.13
2022-10-08T13:06:47.098Z,97698.97
2022-10-08T13:09:32.539Z,97697.94
2022-10-08T13:12:04.195Z,97708.78
2022-10-08T13:14:36.375Z,97708.69
2022-10-08T13:17:04.002Z,97697.63
2022-10-08T13:19:36.058Z,97695.94
2022-10-08T13:22:07.410Z,97694.53
2022-10-08T13:24:44.686Z,97697.53
2022-10-08T13:27:28.674Z,97700.22
2022-10-08T13:29:56.660Z,97690.59
2022-10-08T13:32:25.885Z,97689.19
2022-10-08T13:34:55.968Z,97695.53
2022-10-08T13:37:22.678Z,97692.06
2022-10-08T13:40:12.422Z,97690.16
2022-10-08T13:42:44.236Z,97697.13
2022-10-08T13:45:19.558Z,97693.31
2022-10-08T13:47:46.802Z,97691.00
2022-10-08T13:50:13.918Z,97690.47
2022-10-08T13:52:47.327Z,97689.13
2022-10-08T13:55:21.376Z,97692.38
2022-10-08T13:57:48.335Z,97692.91
2022-10-08T14:00:15.718Z,97685.13
2022-10-08T14:02:42.466Z,97682.16
2022-10-08T14:05:09.196Z,97677.16
2022-10-08T14:07:35.998Z,97680.63
2022-10-08T14:10:03.845Z,97679.22
2022-10-08T14:12:32.667Z,97685.63
2022-10-08T14:15:00.643Z,97685.63
2022-10-08T14:17:27.675Z,97688.34
2022-10-08T14:19:55.579Z,97689.97
2022-10-08T14:22:22.527Z,97691.13
2022-10-08T14:24:49.273Z,97687.41
2022-10-08T14:27:16.403Z,97687.22
2022-10-08T14:29:43.082Z,97685.59
2022-10-08T14:32:11.285Z,97686.53
2022-10-08T14:34:37.993Z,97681.81
2022-10-08T14:37:05.716Z,97692.72
2022-10-08T14:39:33.675Z,97696.19
2022-10-08T14:42:00.555Z,97694.56
2022-10-08T14:44:27.323Z,97696.69
2022-10-08T14:46:54.074Z,97696.59
2022-10-08T14:49:21.268Z,97695.44
2022-10-08T14:51:48.081Z,97690.13
2022-10-08T14:54:14.776Z,97688.50
2022-10-08T14:56:42.894Z,97694.69
2022-10-08T14:59:10.801Z,97695.00
2022-10-08T15:01:37.717Z,97697.25
2022-10-08T15:04:05.240Z,97694.63
2022-10-08T15:06:32.726Z,97695.31
2022-10-08T15:08:59.686Z,97701.06
2022-10-08T15:11:26.418Z,97701.69
2022-10-08T15:13:53.784Z,97687.13
2022-10-08T15:16:20.588Z,97687.94
2022-10-08T15:18:47.591Z,97685.56
2022-10-08T15:21:14.451Z,97685.75
2022-10-08T15:23:41.150Z,97683.50
2022-10-08T15:26:13.180Z,97684.75
2022-10-08T15:28:40.213Z,97691.22
2022-10-08T15:31:18.519Z,97687.78
2022-10-08T15:33:47.448Z,97687.97
2022-10-08T15:36:26.599Z,97684.66
2022-10-08T15:38:56.485Z,97692.47
2022-10-08T15:41:23.421Z,97693.44
2022-10-08T15:43:50.179Z,97702.66
2022-10-08T15:46:18.507Z,97701.44
2022-10-08T15:48:56.255Z,97707.09
2022-10-08T15:51:24.002Z,97703.94
2022-10-08T15:53:51.466Z,97704.84
2022-10-08T15:56:18.236Z,97704.38
2022-10-08T15:58:52.186Z,97714.59
2022-10-08T16:01:23.954Z,97707.00
2022-10-08T16:03:53.561Z,97702.13
2022-10-08T16:06:25.955Z,97701.91
2022-10-08T16:08:53.347Z,97702.75
2022-10-08T16:11:22.908Z,97712.97
2022-10-08T16:13:59.769Z,97714.91
2022-10-08T16:16:26.814Z,97706.72
2022-10-08T16:18:58.727Z,97719.09
2022-10-08T16:21:26.854Z,97713.34
2022-10-08T16:23:53.542Z,97712.31
2022-10-08T16:26:21.380Z,97714.53
2022-10-08T16:28:55.239Z,97720.56
2022-10-08T16:31:23.146Z,97718.09
2022-10-08T16:33:54.878Z,97721.03
2022-10-08T16:36:21.743Z,97725.38
2022-10-08T16:38:48.398Z,97720.69
2022-10-08T16:41:20.649Z,97717.72
2022-10-08T16:43:51.624Z,97721.69
2022-10-08T16:46:26.953Z,97723.34
2022-10-08T16:49:06.851Z,97723.31
2022-10-08T16:51:37.537Z,97727.50
2022-10-08T16:54:06.817Z,97729.50
2022-10-08T16:56:37.721Z,97735.09
2022-10-08T16:59:13.366Z,97740.59
2022-10-08T17:01:45.329Z,97739.56
2022-10-08T17:04:12.930Z,97741.81
2022-10-08T17:06:39.879Z,97745.94
2022-10-08T17:09:06.951Z,97749.53
2022-10-08T17:11:34.741Z,97756.00
2022-10-08T17:14:02.553Z,97754.44
2022-10-08T17:16:30.464Z,97752.00
2022-10-08T17:18:59.253Z,97755.09
2022-10-08T17:21:26.399Z,97764.38
2022-10-08T17:23:53.286Z,97766.72
2022-10-08T17:26:22.192Z,97772.66
2022-10-08T17:28:49.711Z,97764.34
2022-10-08T17:31:18.913Z,97767.28
2022-10-08T17:33:45.791Z,97773.09
2022-10-08T17:36:18.100Z,97766.31
2022-10-08T17:38:46.537Z,97772.44
2022-10-08T17:41:18.340Z,97778.22
2022-10-08T17:43:46.572Z,97776.03
2022-10-08T17:46:18.307Z,97772.88
2022-10-08T17:48:45.596Z,97774.88
2022-10-08T17:51:14.868Z,97779.50
2022-10-08T17:53:42.532Z,97789.00
2022-10-08T17:56:11.247Z,97787.34
2022-10-08T17:58:38.647Z,97798.00
2022-10-08T18:01:11.182Z,97797.50
2022-10-08T18:03:38.970Z,97800.94
2022-10-08T18:06:07.000Z,97805.78
2022-10-08T18:08:33.995Z,97805.03
2022-10-08T18:11:07.816Z,97807.59
2022-10-08T18:13:35.085Z,97810.16
2022-10-08T18:16:06.116Z,97804.34
2022-10-08T18:18:33.338Z,97820.66
2022-10-08T18:21:01.570Z,97814.69
2022-10-08T18:23:30.512Z,97817.13
2022-10-08T18:26:16.425Z,97818.81
2022-10-08T18:28:43.557Z,97821.13
2022-10-08T18:31:11.546Z,97825.44
2022-10-08T18:33:39.737Z,97831.81
2022-10-08T18:36:14.842Z,97832.63
2022-10-08T18:38:42.730Z,97830.75
2022-10-08T18:41:12.889Z,97843.31
2022-10-08T18:43:39.902Z,97837.22
2022-10-08T18:46:06.666Z,97834.47
2022-10-08T18:48:34.991Z,97840.84
2022-10-08T18:51:05.864Z,97840.13
2022-10-08T18:53:37.683Z,97844.31
2022-10-08T18:56:06.971Z,97838.19
2022-10-08T18:58:33.835Z,97842.41
2022-10-08T19:01:01.056Z,97844.41
2022-10-08T19:03:27.836Z,97847.16
2022-10-08T19:05:54.521Z,97848.50
2022-10-08T19:08:21.343Z,97850.53
2022-10-08T19:10:48.377Z,97857.47
2022-10-08T19:13:15.391Z,97854.72
2022-10-08T19:15:42.877Z,97852.56
2022-10-08T19:18:09.684Z,97860.22
2022-10-08T19:20:36.577Z,97858.06
2022-10-08T19:23:03.504Z,97857.34
2022-10-08T19:25:30.259Z,97858.66
2022-10-08T19:27:56.965Z,97858.66
2022-10-08T19:30:26.575Z,97855.91
2022-10-08T19:32:55.170Z,97864.03
2022-10-08T19:35:21.835Z,97868.81
2022-10-08T19:37:48.622Z,97862.59
2022-10-08T19:40:15.272Z,97865.94
2022-10-08T19:42:41.963Z,97865.22
2022-10-08T19:45:09.131Z,97872.06
2022-10-08T19:47:35.970Z,97871.19
2022-10-08T19:50:03.119Z,97870.47
2022-10-08T19:52:29.836Z,97875.25
2022-10-08T19:54:56.518Z,97874.41
2022-10-08T19:57:24.234Z,97870.19
2022-10-08T19:59:51.092Z,97871.53
2022-10-08T20:02:17.895Z,97883.84
2022-10-08T20:04:46.055Z,97875.44
2022-10-08T20:07:12.854Z,97874.00
2022-10-08T20:09:39.931Z,97865.03
2022-10-08T20:12:06.747Z,97866.34
2022-10-08T20:14:33.448Z,97864.91
2022-10-08T20:17:00.141Z,97874.47
2022-10-08T20:19:26.802Z,97865.50
2022-10-08T20:21:55.310Z,97878.41
2022-10-08T20:24:22.439Z,97881.75
2022-10-08T20:26:49.522Z,97880.31
2022-10-08T20:29:18.838Z,97882.19
2022-10-08T20:31:51.247Z,97885.53
2022-10-08T20:34:26.523Z,97886.13
2022-10-08T20:36:53.724Z,97884.69
2022-10-08T20:39:21.839Z,97881.69
2022-10-08T20:41:49.052Z,97887.19
2022-10-08T20:44:16.204Z,97889.78
2022-10-08T20:46:43.295Z,97884.88
2022-10-08T20:49:12.376Z,97882.56
2022-10-08T20:51:40.266Z,97885.91
2022-10-08T20:54:08.580Z,97887.34
2022-10-08T20:56:39.779Z,97882.28
2022-10-08T20:59:08.717Z,97882.88
2022-10-08T21:01:38.490Z,97877.84
2022-10-08T21:04:06.660Z,97877.69
2022-10-08T21:06:39.437Z,97873.38
2022-10-08T21:09:07.349Z,97875.97
2022-10-08T21:11:34.467Z,97877.88
2022-10-08T21:14:01.764Z,97875.13
2022-10-08T21:16:31.763Z,97868.03
2022-10-08T21:19:01.582Z,97859.66
2022-10-08T21:21:29.524Z,97872.69
2022-10-08T21:23:56.688Z,97866.31
2022-10-08T21:26:31.443Z,97865.31
2022-10-08T21:29:00.122Z,97875.59
2022-10-08T21:31:28.215Z,97876.19
2022-10-08T21:33:55.442Z,97874.59
2022-10-08T21:36:31.634Z,97879.25
2022-10-08T21:38:59.315Z,97881.84
2022-10-08T21:41:29.832Z,97874.78
2022-10-08T21:43:56.914Z,97869.09
2022-10-08T21:46:25.803Z,97867.84
2022-10-08T21:48:57.795Z,97861.19
2022-10-08T21:51:25.063Z,97863.81
2022-10-08T21:53:55.864Z,97862.81
2022-10-08T21:56:24.625Z,97857.19
2022-10-08T21:58:56.111Z,97857.63
2022-10-08T22:01:36.933Z,97856.78
2022-10-08T22:04:08.893Z,97867.50
2022-10-08T22:06:38.467Z,97865.34
2022-10-08T22:09:06.359Z,97856.94
2022-10-08T22:11:33.194Z,97863.72
2022-10-08T22:13:59.833Z,97854.63
2022-10-08T22:16:26.640Z,97857.94
2022-10-08T22:18:53.376Z,97850.28
2022-10-08T22:21:22.408Z,97850.00
2022-10-08T22:23:50.343Z,97848.44
2022-10-08T22:26:18.950Z,97840.75
2022-10-08T22:28:45.886Z,97844.81
2022-10-08T22:31:14.495Z,97841.94
2022-10-08T22:33:41.330Z,97845.28
2022-10-08T22:36:10.378Z,97835.44
2022-10-08T22:38:38.645Z,97827.06
2022-10-08T22:41:11.143Z,97828.94
2022-10-08T22:43:39.375Z,97831.56
2022-10-08T22:46:08.266Z,97827.22
2022-10-08T22:48:35.675Z,97823.75
2022-10-08T22:51:03.527Z,97820.88
2022-10-08T22:53:30.782Z,97835.88
2022-10-08T22:55:57.874Z,97830.97
2022-10-08T22:58:25.024Z,97815.66
2022-10-08T23:01:02.216Z,97820.28
2022-10-08T23:03:29.128Z,97824.47
2022-10-08T23:06:01.872Z,97808.59
2022-10-08T23:08:35.721Z,97814.66
2022-10-08T23:11:04.339Z,97806.25
2022-10-08T23:13:31.599Z,97804.81
2022-10-08T23:16:04.220Z,97801.22
2022-10-08T23:18:32.670Z,97807.44
2022-10-08T23:21:13.278Z,97808.00
2022-10-08T23:23:40.033Z,97790.06
2022-10-08T23:26:07.405Z,97790.97
2022-10-08T23:28:35.424Z,97784.44
2022-10-08T23:31:12.899Z,97791.78
2022-10-08T23:33:42.875Z,97787.59
2022-10-08T23:36:11.120Z,97783.44
2022-10-08T23:38:38.140Z,97787.47
2022-10-08T23:41:06.655Z,97790.06
2022-10-08T23:43:47.335Z,97781.81
2022-10-08T23:46:14.915Z,97785.16
2022-10-08T23:48:42.130Z,97792.25
2022-10-08T23:51:10.075Z,97780.25
2022-10-08T23:53:37.412Z,97775.34
2022-10-08T23:56:04.980Z,97767.69
2022-10-08T23:58:31.862Z,97766.94
